Time;durP1;ratioP1;P1;durP2;ratioP2;P2;SDS_P1;SDS_P2;PMS_P1;PMS_P2;Temp;Humidity;BMP_temperature;BMP_pressure;BME280_temperature;BME280_humidity;BME280_pressure;Samples;Min_cycle;Max_cycle;Signal;HPM_P1;HPM_P2
2021/12/01 00:01:42;;;;;;;36.33;14.68;;;9.00;99.90;;;;;;5153725;27;20051;-79
2021/12/01 00:04:08;;;;;;;40.60;15.43;;;9.00;99.90;;;;;;5118454;27;20399;-80
2021/12/01 00:06:35;;;;;;;37.60;15.40;;;9.00;99.90;;;;;;5118176;27;20046;-79
2021/12/01 00:09:02;;;;;;;35.17;14.38;;;9.10;99.90;;;;;;5135518;27;20082;-79
2021/12/01 00:11:28;;;;;;;46.67;18.20;;;9.10;99.90;;;;;;5134684;27;20047;-79
2021/12/01 00:13:54;;;;;;;49.67;19.15;;;9.20;99.90;;;;;;5135026;27;20050;-79
2021/12/01 00:16:19;;;;;;;53.20;20.13;;;9.20;99.90;;;;;;5117369;27;20042;-86
2021/12/01 00:18:45;;;;;;;29.42;14.23;;;9.20;99.90;;;;;;5153637;27;20051;-80
2021/12/01 00:21:11;;;;;;;26.00;13.73;;;9.30;99.90;;;;;;5135527;27;20082;-80
2021/12/01 00:23:37;;;;;;;49.47;22.77;;;9.20;99.90;;;;;;5134444;27;20043;-82
2021/12/01 00:26:03;;;;;;;49.10;22.25;;;9.30;99.90;;;;;;5130525;28;20043;-79
2021/12/01 00:28:30;;;;;;;40.97;19.27;;;9.30;99.90;;;;;;5097427;28;20043;-79
2021/12/01 00:30:57;;;;;;;63.03;24.02;;;9.30;99.90;;;;;;5097433;28;20129;-79
2021/12/01 00:33:23;;;;;;;52.55;23.23;;;9.30;99.90;;;;;;5114567;28;20113;-86
2021/12/01 00:35:54;;;;;;;59.00;24.70;;;9.40;99.90;;;;;;5088869;28;20483;-79
2021/12/01 00:38:21;;;;;;;60.83;24.33;;;9.30;99.90;;;;;;5114385;28;20047;-79
2021/12/01 00:40:47;;;;;;;35.13;17.45;;;9.30;99.90;;;;;;5064433;28;20047;-79
2021/12/01 00:43:17;;;;;;;50.72;23.38;;;9.30;99.90;;;;;;5099769;27;20047;-79
2021/12/01 00:45:58;;;;;;;40.38;21.13;;;9.40;99.90;;;;;;5118723;27;20184;-79
2021/12/01 00:48:26;;;;;;;45.55;22.38;;;9.30;99.90;;;;;;5118998;27;20051;-86
2021/12/01 00:50:53;;;;;;;46.88;22.70;;;9.30;99.90;;;;;;5118568;27;20551;-79
2021/12/01 00:53:19;;;;;;;43.50;22.60;;;9.30;99.90;;;;;;5135638;27;20042;-80
2021/12/01 00:55:46;;;;;;;43.50;21.48;;;9.30;99.90;;;;;;5117831;27;20449;-79
2021/12/01 00:58:12;;;;;;;50.38;23.20;;;9.30;99.90;;;;;;5118464;27;20163;-79
2021/12/01 01:00:40;;;;;;;43.03;23.52;;;9.30;99.90;;;;;;5117654;27;20050;-80
2021/12/01 01:03:06;;;;;;;50.33;22.20;;;9.30;99.90;;;;;;5101357;27;20047;-79
2021/12/01 01:05:32;;;;;;;46.63;22.83;;;9.30;99.90;;;;;;5117916;27;20053;-79
2021/12/01 01:07:58;;;;;;;46.75;22.88;;;9.30;99.90;;;;;;5117721;27;20495;-81
2021/12/01 01:18:27;;;;;;;51.67;20.92;;;9.30;99.90;;;;;;5118099;27;20058;-79
2021/12/01 01:20:53;;;;;;;42.58;20.80;;;9.30;99.90;;;;;;5118089;27;20147;-79
2021/12/01 01:23:18;;;;;;;34.97;18.90;;;9.40;99.90;;;;;;5117923;27;20084;-79
2021/12/01 01:25:44;;;;;;;39.97;16.13;;;9.30;99.90;;;;;;5117975;27;20054;-79
2021/12/01 01:28:10;;;;;;;38.45;16.20;;;9.40;99.90;;;;;;5117865;27;20047;-79
2021/12/01 01:30:35;;;;;;;30.65;14.65;;;9.30;99.90;;;;;;5100903;27;20047;-79
2021/12/01 01:33:01;;;;;;;30.73;15.30;;;9.30;99.90;;;;;;5117742;27;20129;-79
2021/12/01 01:35:27;;;;;;;34.38;16.33;;;9.40;99.90;;;;;;5117831;27;20050;-79
2021/12/01 01:37:53;;;;;;;29.02;14.65;;;9.30;99.90;;;;;;5100878;27;20054;-79
2021/12/01 01:40:19;;;;;;;28.20;15.30;;;9.40;99.90;;;;;;5136092;27;20050;-78
2021/12/01 01:42:45;;;;;;;32.10;15.45;;;9.40;99.90;;;;;;5117639;27;20070;-79
2021/12/01 01:45:11;;;;;;;36.70;15.48;;;9.30;99.90;;;;;;5101210;27;20531;-79
2021/12/01 01:47:48;;;;;;;26.27;12.70;;;9.40;99.90;;;;;;5117812;27;20139;-79
2021/12/01 01:50:26;;;;;;;14.00;8.20;;;9.40;99.90;;;;;;5141882;27;20039;-79
2021/12/01 01:52:51;;;;;;;22.73;12.70;;;9.40;99.90;;;;;;5137728;27;20050;-79
2021/12/01 01:55:17;;;;;;;17.08;9.07;;;9.40;99.90;;;;;;5120742;27;20555;-79
2021/12/01 01:57:44;;;;;;;14.20;7.65;;;9.30;99.90;;;;;;5155934;27;20062;-81
2021/12/01 02:00:11;;;;;;;20.50;10.32;;;9.40;99.90;;;;;;5137342;27;20459;-79
2021/12/01 02:02:36;;;;;;;19.77;9.25;;;9.40;99.90;;;;;;5137669;27;20463;-79
2021/12/01 02:05:03;;;;;;;18.45;10.07;;;9.40;99.90;;;;;;5138221;27;20053;-79
2021/12/01 02:07:29;;;;;;;19.27;10.43;;;9.40;99.90;;;;;;5156181;27;20038;-79
2021/12/01 02:09:55;;;;;;;19.77;9.77;;;9.40;99.90;;;;;;5137412;27;20074;-79
2021/12/01 02:12:21;;;;;;;21.55;9.55;;;9.50;99.90;;;;;;5155878;27;20093;-79
2021/12/01 02:14:47;;;;;;;20.50;9.25;;;9.40;99.90;;;;;;5137450;27;20137;-79
2021/12/01 02:17:12;;;;;;;13.23;7.13;;;9.40;99.90;;;;;;5103373;27;20531;-79
2021/12/01 02:19:38;;;;;;;12.63;7.03;;;9.40;99.90;;;;;;5155340;27;20080;-81
2021/12/01 02:22:04;;;;;;;11.80;5.57;;;9.40;99.90;;;;;;5136750;27;20082;-83
2021/12/01 02:24:30;;;;;;;12.77;5.95;;;9.50;99.90;;;;;;5136096;27;20097;-79
2021/12/01 02:26:56;;;;;;;11.30;5.45;;;9.50;99.90;;;;;;5118749;27;20185;-79
2021/12/01 02:29:25;;;;;;;13.18;5.40;;;9.50;99.90;;;;;;5118956;27;20543;-81
2021/12/01 02:31:53;;;;;;;7.32;4.32;;;9.50;99.90;;;;;;5136318;27;20058;-78
2021/12/01 02:34:23;;;;;;;10.68;3.95;;;9.50;99.90;;;;;;5136704;27;20443;-79
2021/12/01 02:36:52;;;;;;;6.40;3.22;;;9.60;99.90;;;;;;5135864;27;20511;-79
2021/12/01 02:39:18;;;;;;;9.20;4.15;;;9.50;99.90;;;;;;5136410;27;20046;-80
2021/12/01 02:41:49;;;;;;;6.97;3.90;;;9.60;99.90;;;;;;5119054;27;20118;-79
2021/12/01 02:44:17;;;;;;;5.68;3.45;;;9.60;99.90;;;;;;5154723;27;20083;-79
2021/12/01 02:46:44;;;;;;;7.88;4.07;;;9.50;99.90;;;;;;5119443;27;20070;-79
2021/12/01 02:49:10;;;;;;;10.07;3.75;;;9.60;99.90;;;;;;5154833;27;20125;-79
2021/12/01 02:51:37;;;;;;;6.72;4.05;;;9.60;99.90;;;;;;5136621;27;20087;-79
2021/12/01 02:54:04;;;;;;;7.20;3.10;;;9.60;99.90;;;;;;5119412;27;20042;-79
2021/12/01 02:56:32;;;;;;;4.78;2.80;;;9.70;99.90;;;;;;5135828;27;20062;-79
2021/12/01 02:59:00;;;;;;;5.35;2.70;;;9.70;99.90;;;;;;5136154;27;20050;-79
2021/12/01 03:01:26;;;;;;;4.85;2.13;;;9.70;99.90;;;;;;5136347;27;20045;-79
2021/12/01 03:03:53;;;;;;;8.30;3.05;;;9.70;99.90;;;;;;5136033;27;20105;-79
2021/12/01 03:06:21;;;;;;;5.97;3.70;;;9.70;99.90;;;;;;5135365;27;20051;-79
2021/12/01 03:08:47;;;;;;;10.18;4.00;;;9.70;99.90;;;;;;5135396;27;20086;-80
2021/12/01 03:11:15;;;;;;;6.40;3.63;;;9.80;99.90;;;;;;5101638;27;20082;-79
2021/12/01 03:13:41;;;;;;;4.78;3.35;;;9.70;99.90;;;;;;5136497;27;20046;-83
2021/12/01 03:16:08;;;;;;;5.35;3.30;;;9.70;99.90;;;;;;5118576;27;20126;-79
2021/12/01 03:18:33;;;;;;;7.95;4.28;;;9.70;99.90;;;;;;5119182;27;20043;-79
2021/12/01 03:20:59;;;;;;;6.78;3.58;;;9.70;99.90;;;;;;5118369;27;20103;-79
2021/12/01 03:23:26;;;;;;;6.72;4.38;;;9.70;99.90;;;;;;5101698;27;20050;-79
2021/12/01 03:25:52;;;;;;;5.95;3.50;;;9.70;99.90;;;;;;5135618;27;20039;-79
2021/12/01 03:28:19;;;;;;;6.25;3.45;;;9.70;99.90;;;;;;5154388;27;20132;-79
2021/12/01 03:30:45;;;;;;;5.95;1.98;;;9.70;99.90;;;;;;5135505;27;20047;-86
2021/12/01 03:33:18;;;;;;;5.70;2.28;;;9.70;99.90;;;;;;5135180;27;20483;-79
2021/12/01 03:35:46;;;;;;;5.85;2.30;;;9.60;99.90;;;;;;5153260;27;20054;-84
2021/12/01 03:38:12;;;;;;;3.95;2.25;;;9.70;99.90;;;;;;5135388;27;20146;-79
2021/12/01 03:40:39;;;;;;;8.27;2.67;;;9.70;99.90;;;;;;5153954;27;20187;-80
2021/12/01 03:43:04;;;;;;;4.90;2.17;;;9.60;99.90;;;;;;5113576;27;20049;-80
2021/12/01 03:45:30;;;;;;;5.65;2.10;;;9.60;99.90;;;;;;5115925;27;20414;-80
2021/12/01 03:47:56;;;;;;;6.38;1.80;;;9.60;99.90;;;;;;5117804;27;20047;-79
2021/12/01 03:50:22;;;;;;;13.77;2.92;;;9.60;99.90;;;;;;5135441;27;20376;-80
2021/12/01 03:52:49;;;;;;;9.63;2.40;;;9.60;99.90;;;;;;5117989;27;20086;-80
2021/12/01 03:55:14;;;;;;;7.50;2.13;;;9.60;99.90;;;;;;5135511;27;20199;-81
2021/12/01 03:57:40;;;;;;;9.55;2.17;;;9.50;99.90;;;;;;5131517;28;20519;-80
2021/12/01 04:00:10;;;;;;;8.55;2.40;;;9.50;99.90;;;;;;5131831;28;20039;-79
2021/12/01 04:02:36;;;;;;;11.90;2.53;;;9.50;99.90;;;;;;5114514;28;20074;-79
2021/12/01 04:05:01;;;;;;;8.05;2.95;;;9.50;99.90;;;;;;5114131;28;20081;-79
2021/12/01 04:07:27;;;;;;;7.80;2.70;;;9.50;99.90;;;;;;5114492;28;20104;-80
2021/12/01 04:09:53;;;;;;;18.98;3.83;;;9.50;99.90;;;;;;5113386;28;20138;-80
2021/12/01 04:12:18;;;;;;;7.55;3.00;;;9.50;99.90;;;;;;5114078;28;20039;-80
2021/12/01 04:14:45;;;;;;;9.43;3.00;;;9.50;99.90;;;;;;5131263;28;20078;-79
2021/12/01 04:17:11;;;;;;;7.45;3.20;;;9.50;99.90;;;;;;5130890;27;20563;-80
2021/12/01 04:19:37;;;;;;;7.53;3.45;;;9.50;99.90;;;;;;5135829;27;20053;-81
2021/12/01 04:22:03;;;;;;;6.32;3.40;;;9.40;99.90;;;;;;5118398;27;20082;-80
2021/12/01 04:24:29;;;;;;;6.10;2.75;;;9.50;99.90;;;;;;5135988;27;20047;-80
2021/12/01 04:26:55;;;;;;;5.20;2.75;;;9.50;99.90;;;;;;5135184;27;20039;-80
2021/12/01 04:29:21;;;;;;;3.85;2.88;;;9.40;99.90;;;;;;5135630;27;20051;-80
2021/12/01 04:31:47;;;;;;;6.50;2.75;;;9.50;99.90;;;;;;5136644;27;20054;-82
2021/12/01 04:34:12;;;;;;;4.90;2.45;;;9.50;99.90;;;;;;5135107;27;20047;-79
2021/12/01 04:36:41;;;;;;;4.85;2.45;;;9.40;99.90;;;;;;5118320;27;20051;-80
2021/12/01 04:39:11;;;;;;;4.13;2.38;;;9.40;99.90;;;;;;5135252;27;20056;-80
2021/12/01 04:41:49;;;;;;;5.38;2.85;;;9.50;99.90;;;;;;5136283;27;20035;-80
2021/12/01 04:44:15;;;;;;;4.13;2.88;;;9.40;99.90;;;;;;5135213;27;20174;-81
2021/12/01 04:46:46;;;;;;;4.45;2.72;;;9.40;99.90;;;;;;5135129;27;20130;-80
2021/12/01 04:49:14;;;;;;;4.57;2.90;;;9.40;99.90;;;;;;5134360;27;20043;-80
2021/12/01 04:51:41;;;;;;;4.03;2.47;;;9.30;99.90;;;;;;5134783;27;20550;-80
2021/12/01 04:54:07;;;;;;;4.07;2.60;;;9.40;99.90;;;;;;5134058;27;20464;-80
2021/12/01 04:56:33;;;;;;;5.82;2.70;;;9.40;99.90;;;;;;5134264;27;20126;-81
2021/12/01 04:58:59;;;;;;;6.03;2.63;;;9.40;99.90;;;;;;5134053;27;20051;-79
2021/12/01 05:01:24;;;;;;;3.55;2.20;;;9.40;99.90;;;;;;5134064;27;20054;-80
2021/12/01 05:03:51;;;;;;;2.88;2.00;;;9.30;99.90;;;;;;5135232;27;20086;-79
2021/12/01 05:06:17;;;;;;;4.53;1.92;;;9.30;99.90;;;;;;5116736;27;20551;-82
2021/12/01 05:08:45;;;;;;;4.25;1.73;;;9.30;99.90;;;;;;5134082;27;20491;-79
2021/12/01 05:11:10;;;;;;;3.00;1.50;;;9.30;99.90;;;;;;5134153;27;20047;-79
2021/12/01 05:13:36;;;;;;;4.22;2.08;;;9.30;99.90;;;;;;5134388;27;20099;-79
2021/12/01 05:16:02;;;;;;;2.95;1.70;;;9.30;99.90;;;;;;5116757;27;20479;-78
2021/12/01 05:18:27;;;;;;;4.57;2.03;;;9.30;99.90;;;;;;5117336;27;20373;-82
2021/12/01 05:20:53;;;;;;;2.58;1.70;;;9.20;99.90;;;;;;5099977;27;20051;-81
2021/12/01 05:23:19;;;;;;;2.83;1.75;;;9.30;99.90;;;;;;5134507;27;20062;-79
2021/12/01 05:25:46;;;;;;;2.47;1.50;;;9.30;99.90;;;;;;5099218;27;20054;-80
2021/12/01 05:28:12;;;;;;;3.42;2.00;;;9.20;99.90;;;;;;5132347;27;20143;-79
2021/12/01 05:30:38;;;;;;;2.72;1.60;;;9.30;99.90;;;;;;5132868;27;20491;-84
2021/12/01 05:33:09;;;;;;;3.58;2.13;;;9.20;99.90;;;;;;5134081;27;20139;-79
2021/12/01 05:35:36;;;;;;;2.95;1.85;;;9.20;99.90;;;;;;5116325;27;20047;-80
2021/12/01 05:38:05;;;;;;;2.20;2.00;;;9.20;99.90;;;;;;5099368;27;20051;-80
2021/12/01 05:40:32;;;;;;;3.05;2.25;;;9.20;99.90;;;;;;5134068;27;20047;-79
2021/12/01 05:42:58;;;;;;;3.70;2.40;;;9.20;99.90;;;;;;5117370;27;20047;-86
2021/12/01 05:45:24;;;;;;;1.75;1.55;;;9.20;99.90;;;;;;5133881;27;20047;-80
2021/12/01 05:47:50;;;;;;;2.53;2.10;;;9.10;99.90;;;;;;5133816;27;20050;-80
2021/12/01 05:50:16;;;;;;;5.07;2.85;;;9.00;99.90;;;;;;5116792;27;20108;-80
2021/12/01 05:52:42;;;;;;;4.75;2.40;;;9.10;99.90;;;;;;5133476;27;20054;-80
2021/12/01 05:55:08;;;;;;;3.53;2.58;;;9.10;99.90;;;;;;5133555;27;20065;-84
2021/12/01 05:57:34;;;;;;;5.35;2.92;;;9.10;99.90;;;;;;5133396;27;20488;-81
2021/12/01 06:00:00;;;;;;;3.47;2.65;;;9.00;99.90;;;;;;5116519;27;20100;-85
2021/12/01 06:02:27;;;;;;;3.67;2.53;;;8.90;99.90;;;;;;5134196;27;20054;-79
2021/12/01 06:04:53;;;;;;;4.85;2.88;;;9.00;99.90;;;;;;5134396;27;20043;-79
2021/12/01 06:07:19;;;;;;;3.55;2.80;;;9.00;99.90;;;;;;5134212;27;20069;-79
2021/12/01 06:09:45;;;;;;;3.30;2.60;;;9.00;99.90;;;;;;5133766;27;20095;-80
2021/12/01 06:12:12;;;;;;;3.22;2.70;;;9.00;99.90;;;;;;5133432;27;20043;-81
2021/12/01 06:14:40;;;;;;;3.67;2.53;;;8.90;99.90;;;;;;5133236;27;20055;-81
2021/12/01 06:17:08;;;;;;;3.88;2.83;;;8.90;99.90;;;;;;5133162;27;20050;-82
2021/12/01 06:19:33;;;;;;;3.25;2.00;;;8.90;99.90;;;;;;5134165;27;20047;-80
2021/12/01 06:22:00;;;;;;;4.63;2.40;;;8.90;99.90;;;;;;5134813;27;20055;-79
2021/12/01 06:24:26;;;;;;;2.60;2.08;;;8.80;99.90;;;;;;5133316;27;20046;-80
2021/12/01 06:26:52;;;;;;;2.95;2.20;;;8.80;99.90;;;;;;5116187;27;20051;-80
2021/12/01 06:29:18;;;;;;;3.15;2.28;;;8.80;99.90;;;;;;5115994;27;20085;-80
2021/12/01 06:31:43;;;;;;;3.33;2.17;;;8.80;99.90;;;;;;5116199;27;20039;-79
2021/12/01 06:34:09;;;;;;;3.03;1.90;;;8.80;99.90;;;;;;5133974;27;20043;-79
2021/12/01 06:36:35;;;;;;;2.67;1.98;;;8.80;99.90;;;;;;5133063;27;20047;-80
2021/12/01 06:39:00;;;;;;;2.35;1.50;;;8.70;99.90;;;;;;5115926;27;20126;-79
2021/12/01 06:41:26;;;;;;;3.38;1.73;;;8.70;99.90;;;;;;5133222;27;20511;-79
2021/12/01 06:43:52;;;;;;;2.55;1.83;;;8.70;99.90;;;;;;5116049;27;20396;-79
2021/12/01 06:46:18;;;;;;;3.20;1.92;;;8.70;99.90;;;;;;5133899;27;20512;-81
2021/12/01 06:48:43;;;;;;;2.30;1.70;;;8.70;99.90;;;;;;5132984;27;20046;-79
2021/12/01 06:51:09;;;;;;;2.15;1.67;;;8.70;99.90;;;;;;5115694;27;20043;-80
2021/12/01 06:53:35;;;;;;;2.03;1.52;;;8.60;99.90;;;;;;5132844;27;20051;-79
2021/12/01 06:56:01;;;;;;;2.53;1.92;;;8.60;99.90;;;;;;5134370;27;20058;-79
2021/12/01 06:58:26;;;;;;;2.10;1.60;;;8.60;99.90;;;;;;5118339;27;20058;-81
2021/12/01 07:00:52;;;;;;;1.58;1.05;;;8.60;99.90;;;;;;5136167;27;20042;-80
2021/12/01 07:03:18;;;;;;;1.88;1.40;;;8.60;99.90;;;;;;5135912;27;20047;-81
2021/12/01 07:05:43;;;;;;;1.38;1.05;;;8.60;99.90;;;;;;5119294;27;20086;-79
2021/12/01 07:08:09;;;;;;;2.83;1.50;;;8.60;99.90;;;;;;5085051;27;20133;-83
2021/12/01 07:10:35;;;;;;;2.28;1.30;;;8.50;99.90;;;;;;5136170;27;20505;-79
2021/12/01 07:13:00;;;;;;;1.05;0.75;;;8.50;99.90;;;;;;5119192;27;20050;-79
2021/12/01 07:15:26;;;;;;;2.10;1.42;;;8.60;99.90;;;;;;5135888;27;20047;-79
2021/12/01 07:17:52;;;;;;;2.08;1.70;;;8.50;99.90;;;;;;5118484;27;20054;-81
2021/12/01 07:20:17;;;;;;;1.48;1.15;;;8.50;99.90;;;;;;5154007;27;20463;-79
2021/12/01 07:22:43;;;;;;;1.10;1.00;;;8.50;99.90;;;;;;5118590;27;20050;-78
2021/12/01 07:25:09;;;;;;;1.88;1.30;;;8.50;99.90;;;;;;5135607;27;20125;-90
2021/12/01 07:27:35;;;;;;;1.98;1.65;;;8.50;99.90;;;;;;5136008;27;20047;-79
2021/12/01 07:30:01;;;;;;;1.55;1.17;;;8.50;99.90;;;;;;5118322;27;20043;-79
2021/12/01 07:32:27;;;;;;;2.15;1.67;;;8.50;99.90;;;;;;5135420;27;20039;-79
2021/12/01 07:34:53;;;;;;;1.77;1.38;;;8.50;99.90;;;;;;5135521;27;20484;-79
2021/12/01 07:37:19;;;;;;;2.65;1.95;;;8.50;99.90;;;;;;5135202;27;20086;-79
2021/12/01 07:39:46;;;;;;;2.60;2.10;;;8.50;99.90;;;;;;5135116;27;20086;-79
2021/12/01 07:42:14;;;;;;;3.50;2.55;;;8.60;99.90;;;;;;5135282;27;20043;-86
2021/12/01 07:44:39;;;;;;;2.38;1.90;;;8.60;99.90;;;;;;5118506;27;20598;-79
2021/12/01 07:47:05;;;;;;;4.07;1.90;;;8.60;99.90;;;;;;5118057;27;20141;-80
2021/12/01 07:49:31;;;;;;;3.33;2.67;;;8.50;99.90;;;;;;5118070;27;20169;-79
2021/12/01 07:51:57;;;;;;;4.55;3.10;;;8.60;99.90;;;;;;5117816;27;20498;-80
2021/12/01 07:54:24;;;;;;;3.85;2.85;;;8.60;99.90;;;;;;5117644;27;20446;-79
2021/12/01 07:56:50;;;;;;;4.00;3.17;;;8.60;99.90;;;;;;5153297;27;20067;-80
2021/12/01 07:59:16;;;;;;;3.90;2.53;;;8.60;99.90;;;;;;5153330;27;20125;-79
2021/12/01 08:01:43;;;;;;;4.28;2.80;;;8.60;99.90;;;;;;5118052;27;20133;-79
2021/12/01 08:04:09;;;;;;;5.63;3.80;;;8.60;99.90;;;;;;5135285;27;20144;-81
2021/12/01 08:06:35;;;;;;;6.65;3.85;;;8.60;99.90;;;;;;5135323;27;20126;-79
2021/12/01 08:09:02;;;;;;;4.25;3.20;;;8.70;99.90;;;;;;5118508;27;20042;-83
2021/12/01 08:11:28;;;;;;;5.85;3.55;;;8.60;99.90;;;;;;5153319;27;20047;-82
2021/12/01 08:13:54;;;;;;;6.22;3.70;;;8.70;99.90;;;;;;5117950;27;20406;-79
2021/12/01 08:16:19;;;;;;;4.63;2.58;;;8.70;99.90;;;;;;5134840;27;20096;-80
2021/12/01 08:18:51;;;;;;;5.70;3.45;;;8.70;99.90;;;;;;5118222;27;20082;-80
2021/12/01 08:21:20;;;;;;;7.07;3.78;;;8.70;99.90;;;;;;5134991;27;20039;-88
2021/12/01 08:23:45;;;;;;;4.53;3.50;;;8.60;99.90;;;;;;5153593;27;20051;-80
2021/12/01 08:26:11;;;;;;;8.63;4.57;;;8.70;99.90;;;;;;5135245;27;20046;-80
2021/12/01 08:28:37;;;;;;;4.28;3.35;;;8.70;99.90;;;;;;5117768;27;20137;-80
2021/12/01 08:31:03;;;;;;;5.57;3.50;;;8.60;99.90;;;;;;5135231;27;20043;-81
2021/12/01 08:33:29;;;;;;;7.13;3.38;;;8.70;99.90;;;;;;5134785;27;20153;-79
2021/12/01 08:35:55;;;;;;;7.25;4.15;;;8.70;99.90;;;;;;5118161;27;20050;-80
2021/12/01 08:38:21;;;;;;;5.65;3.35;;;8.70;99.90;;;;;;5117572;27;20476;-79
2021/12/01 08:40:46;;;;;;;7.85;3.60;;;8.70;99.90;;;;;;5135267;27;20069;-79
2021/12/01 08:43:12;;;;;;;5.97;2.92;;;8.70;99.90;;;;;;5134733;27;20050;-79
2021/12/01 08:45:38;;;;;;;6.38;3.20;;;8.70;99.90;;;;;;5117929;27;20560;-79
2021/12/01 08:48:05;;;;;;;6.57;3.70;;;8.70;99.90;;;;;;5118046;27;20395;-79
2021/12/01 08:50:32;;;;;;;12.98;5.00;;;8.70;99.90;;;;;;5100745;27;20057;-80
2021/12/01 08:52:58;;;;;;;24.40;7.97;;;8.70;99.90;;;;;;5134645;27;20077;-80
2021/12/01 08:55:24;;;;;;;8.90;3.50;;;8.70;99.90;;;;;;5117442;27;20506;-80
2021/12/01 08:57:50;;;;;;;8.63;2.75;;;8.60;99.90;;;;;;5134434;27;20051;-81
2021/12/01 09:00:19;;;;;;;8.93;2.88;;;8.50;99.90;;;;;;5117908;27;20043;-82
2021/12/01 09:02:44;;;;;;;8.80;3.42;;;8.50;99.90;;;;;;5153362;27;20082;-80
2021/12/01 09:05:11;;;;;;;12.75;3.15;;;8.50;99.90;;;;;;5138246;27;20517;-80
2021/12/01 09:07:38;;;;;;;7.10;2.42;;;8.50;99.90;;;;;;5120694;27;20503;-82
2021/12/01 09:10:05;;;;;;;8.38;2.55;;;8.50;99.90;;;;;;5138475;27;20050;-79
2021/12/01 09:12:30;;;;;;;6.88;2.10;;;8.40;99.90;;;;;;5156105;27;20433;-80
2021/12/01 09:14:57;;;;;;;13.48;1.80;;;8.40;99.90;;;;;;5138062;27;20125;-79
2021/12/01 09:17:23;;;;;;;14.25;2.60;;;8.40;99.90;;;;;;5156533;27;20034;-86
2021/12/01 09:19:50;;;;;;;13.85;2.60;;;8.40;99.90;;;;;;5121349;27;20058;-79
2021/12/01 09:22:17;;;;;;;11.38;2.40;;;8.40;99.90;;;;;;5138440;27;20089;-80
2021/12/01 09:24:43;;;;;;;11.52;2.90;;;8.50;99.90;;;;;;5138061;27;20106;-79
2021/12/01 09:27:09;;;;;;;6.88;1.60;;;8.40;99.90;;;;;;5121573;27;20073;-79
2021/12/01 09:29:35;;;;;;;6.50;1.27;;;8.50;99.90;;;;;;5138426;27;20485;-79
2021/12/01 09:32:01;;;;;;;8.13;1.85;;;8.50;99.90;;;;;;5157105;27;20078;-79
2021/12/01 09:34:27;;;;;;;9.30;1.30;;;8.60;99.90;;;;;;5138438;27;20099;-80
2021/12/01 09:36:53;;;;;;;8.60;1.80;;;8.50;99.90;;;;;;5121134;27;20039;-79
2021/12/01 09:39:20;;;;;;;10.23;2.03;;;8.50;99.90;;;;;;5121331;27;20043;-79
2021/12/01 09:41:46;;;;;;;12.30;2.05;;;8.50;99.90;;;;;;5138329;27;20054;-79
2021/12/01 09:44:11;;;;;;;8.50;1.35;;;8.40;99.90;;;;;;5137929;27;20042;-80
2021/12/01 09:46:37;;;;;;;5.72;1.50;;;8.20;99.90;;;;;;5136596;27;20043;-80
2021/12/01 09:49:03;;;;;;;6.32;1.33;;;8.20;99.90;;;;;;5137034;27;20483;-79
2021/12/01 09:51:29;;;;;;;8.30;1.80;;;8.10;99.90;;;;;;5155896;27;20038;-80
2021/12/01 09:53:56;;;;;;;13.63;1.30;;;8.10;99.90;;;;;;5137944;27;20540;-79
2021/12/01 09:56:21;;;;;;;6.03;1.20;;;8.20;99.90;;;;;;5137731;27;20059;-81
2021/12/01 09:58:47;;;;;;;11.52;1.92;;;8.20;99.90;;;;;;5120462;27;20051;-79
2021/12/01 10:01:16;;;;;;;9.38;1.70;;;8.20;99.90;;;;;;5137605;27;20051;-79
2021/12/01 10:03:43;;;;;;;6.13;0.98;;;8.20;99.90;;;;;;5137915;27;20047;-79
2021/12/01 10:06:13;;;;;;;10.95;1.25;;;8.20;99.90;;;;;;5120653;27;20095;-79
2021/12/01 10:08:44;;;;;;;10.02;1.40;;;8.20;99.90;;;;;;5120555;27;20078;-79
2021/12/01 10:11:11;;;;;;;6.53;0.88;;;8.30;99.90;;;;;;5155906;27;20478;-79
2021/12/01 10:13:57;;;;;;;12.60;1.50;;;8.20;99.90;;;;;;5136763;27;20076;-79
2021/12/01 10:16:32;;;;;;;9.63;1.13;;;8.20;99.90;;;;;;5137702;27;20145;-79
2021/12/01 10:19:01;;;;;;;10.38;3.72;;;8.30;99.90;;;;;;5137458;27;20038;-80
2021/12/01 10:21:50;;;;;;;10.73;2.80;;;8.20;99.90;;;;;;5137120;27;20105;-84
2021/12/01 10:24:34;;;;;;;8.57;2.03;;;8.30;99.90;;;;;;5136963;27;20039;-80
2021/12/01 10:27:02;;;;;;;11.75;1.77;;;8.40;99.90;;;;;;5137377;27;20476;-80
2021/12/01 10:29:41;;;;;;;12.40;1.67;;;8.40;99.90;;;;;;5119733;27;20514;-85
2021/12/01 10:32:07;;;;;;;9.15;2.67;;;8.40;99.90;;;;;;5155336;27;20138;-85
2021/12/01 10:34:39;;;;;;;14.88;3.05;;;8.40;99.90;;;;;;5119369;27;20486;-79
2021/12/01 10:37:26;;;;;;;10.77;1.70;;;8.40;99.90;;;;;;5154874;27;20042;-80
2021/12/01 10:40:14;;;;;;;5.88;1.00;;;8.40;99.90;;;;;;5136200;27;20487;-80
2021/12/01 10:43:14;;;;;;;7.25;1.10;;;8.40;99.90;;;;;;5118934;27;20183;-80
2021/12/01 10:45:43;;;;;;;10.80;1.33;;;8.40;99.90;;;;;;5136340;27;20454;-80
2021/12/01 10:48:17;;;;;;;4.13;0.88;;;8.50;99.90;;;;;;5136540;27;20057;-80
2021/12/01 10:50:43;;;;;;;8.38;0.95;;;8.50;99.90;;;;;;5119247;27;20050;-80
2021/12/01 10:53:09;;;;;;;14.10;1.55;;;8.50;99.90;;;;;;5135754;27;20548;-80
2021/12/01 10:55:52;;;;;;;9.75;1.75;;;8.40;99.90;;;;;;5119063;27;20054;-81
2021/12/01 10:58:18;;;;;;;8.90;1.67;;;8.40;99.90;;;;;;5135788;27;20082;-80
2021/12/01 11:00:51;;;;;;;11.95;1.55;;;8.40;99.90;;;;;;5136249;27;20047;-80
2021/12/01 11:03:19;;;;;;;6.30;0.98;;;8.30;99.90;;;;;;5119222;27;20054;-82
2021/12/01 11:05:46;;;;;;;10.23;1.40;;;8.30;99.90;;;;;;5135463;27;20046;-80
2021/12/01 11:08:17;;;;;;;10.07;1.67;;;8.30;99.90;;;;;;5154571;27;20050;-80
2021/12/01 11:10:46;;;;;;;6.45;1.13;;;8.20;99.90;;;;;;5118295;27;20134;-80
2021/12/01 11:13:13;;;;;;;8.63;1.85;;;8.10;99.90;;;;;;5136303;27;20050;-80
2021/12/01 11:15:42;;;;;;;5.75;1.25;;;8.10;99.90;;;;;;5135472;27;20082;-80
2021/12/01 11:18:16;;;;;;;4.68;0.80;;;8.00;99.90;;;;;;5135784;27;20129;-82
2021/12/01 11:20:50;;;;;;;7.82;1.30;;;8.00;99.90;;;;;;5118858;27;20043;-81
2021/12/01 11:23:22;;;;;;;12.70;1.52;;;8.00;99.90;;;;;;5136092;27;20047;-80
2021/12/01 11:26:05;;;;;;;15.65;1.83;;;8.00;99.90;;;;;;5118632;27;20042;-80
2021/12/01 11:28:46;;;;;;;10.07;1.42;;;8.10;99.90;;;;;;5136021;27;20047;-79
2021/12/01 11:31:26;;;;;;;12.00;1.50;;;8.10;99.90;;;;;;5154336;27;20051;-80
2021/12/01 11:33:56;;;;;;;14.80;2.25;;;8.10;99.90;;;;;;5135077;27;20796;-79
2021/12/01 11:36:29;;;;;;;7.63;2.40;;;8.10;99.90;;;;;;5135747;27;20042;-80
2021/12/01 11:38:57;;;;;;;19.10;3.58;;;8.10;99.90;;;;;;5135591;27;20475;-80
2021/12/01 11:41:24;;;;;;;15.43;3.30;;;8.00;99.90;;;;;;5118664;27;20135;-80
2021/12/01 11:43:50;;;;;;;6.03;1.77;;;8.00;99.90;;;;;;5135491;27;20043;-85
2021/12/01 11:46:17;;;;;;;16.63;3.90;;;8.10;99.90;;;;;;5135917;27;20079;-81
2021/12/01 11:48:49;;;;;;;9.25;3.25;;;8.10;99.90;;;;;;5134985;27;20051;-79
2021/12/01 11:51:25;;;;;;;10.70;2.92;;;8.10;99.90;;;;;;5117849;27;20054;-80
2021/12/01 11:54:12;;;;;;;15.63;3.25;;;8.10;99.90;;;;;;5131571;27;20112;-80
2021/12/01 11:56:47;;;;;;;13.95;2.35;;;8.00;99.90;;;;;;5114691;28;20055;-86
2021/12/01 11:59:16;;;;;;;16.38;1.85;;;8.00;99.90;;;;;;5132434;28;20042;-80
2021/12/01 12:02:04;;;;;;;10.65;2.10;;;7.90;99.90;;;;;;5097595;28;20460;-82
2021/12/01 12:04:36;;;;;;;18.95;2.65;;;7.90;99.90;;;;;;5113114;28;20401;-79
2021/12/01 12:07:09;;;;;;;16.38;2.65;;;7.80;99.90;;;;;;5097995;28;20461;-79
2021/12/01 12:09:35;;;;;;;21.20;2.90;;;7.80;99.90;;;;;;5132079;28;20102;-81
2021/12/01 12:12:02;;;;;;;27.23;2.40;;;7.80;99.90;;;;;;5114363;28;20077;-79
2021/12/01 12:14:34;;;;;;;19.33;3.70;;;7.80;99.90;;;;;;5097968;28;20047;-79
2021/12/01 12:17:14;;;;;;;17.02;2.47;;;7.70;99.90;;;;;;5131823;28;20039;-80
2021/12/01 12:19:46;;;;;;;22.23;2.50;;;7.60;99.90;;;;;;5131879;28;20047;-80
2021/12/01 12:22:16;;;;;;;14.15;2.17;;;7.70;99.90;;;;;;5132174;28;20047;-80
2021/12/01 12:24:52;;;;;;;20.77;2.53;;;7.80;99.90;;;;;;5097810;28;20043;-93
2021/12/01 12:27:41;;;;;;;19.55;2.53;;;7.90;99.90;;;;;;5114786;28;20380;-79
2021/12/01 12:30:11;;;;;;;11.00;1.92;;;8.00;99.90;;;;;;5097034;28;20043;-81
2021/12/01 12:32:38;;;;;;;12.30;1.75;;;7.80;99.90;;;;;;5132562;28;20047;-79
2021/12/01 12:35:14;;;;;;;16.02;2.22;;;7.60;99.90;;;;;;5131623;28;20118;-79
2021/12/01 12:37:41;;;;;;;15.15;2.88;;;7.50;99.90;;;;;;5114838;27;20070;-79
2021/12/01 12:40:11;;;;;;;19.92;2.60;;;7.50;99.90;;;;;;5117475;27;20047;-82
2021/12/01 12:43:13;;;;;;;16.58;2.40;;;7.50;99.90;;;;;;5117798;27;20488;-81
2021/12/01 12:45:59;;;;;;;16.17;2.65;;;7.40;99.90;;;;;;5101622;27;20055;-79
2021/12/01 12:48:31;;;;;;;14.45;1.83;;;7.30;99.90;;;;;;5135915;27;20050;-79
2021/12/01 12:51:19;;;;;;;10.27;1.92;;;7.40;99.90;;;;;;5118654;27;20138;-79
2021/12/01 12:54:01;;;;;;;8.63;1.38;;;7.30;99.90;;;;;;5149210;27;20058;-87
2021/12/01 12:56:32;;;;;;;16.67;1.92;;;7.30;99.90;;;;;;5118212;27;20055;-79
2021/12/01 12:59:19;;;;;;;10.35;1.98;;;7.20;99.90;;;;;;5117876;27;20404;-79
2021/12/01 13:01:55;;;;;;;12.77;1.90;;;7.30;99.90;;;;;;5118301;27;20058;-82
2021/12/01 13:04:40;;;;;;;;;;;7.20;99.90;;;;;;5118804;27;20074;-79
2021/12/01 13:07:35;;;;;;;9.63;1.58;;;7.20;99.90;;;;;;5117586;27;19919;-79